sensor_id;sensor_type;location;lat;lon;timestamp;P1;durP1;ratioP1;P2;durP2;ratioP2
8129;SDS011;4106;52.532;13.408;2022-08-11T00:01:51;1.27;;;1.25;;
8129;SDS011;4106;52.532;13.408;2022-08-11T00:04:17;1.75;;;1.50;;
8129;SDS011;4106;52.532;13.408;2022-08-11T00:06:44;1.50;;;1.40;;
8129;SDS011;4106;52.532;13.408;2022-08-11T00:09:14;1.60;;;1.50;;
8129;SDS011;4106;52.532;13.408;2022-08-11T00:11:45;1.60;;;1.50;;
8129;SDS011;4106;52.532;13.408;2022-08-11T00:14:14;1.60;;;1.50;;
8129;SDS011;4106;52.532;13.408;2022-08-11T00:16:52;1.50;;;1.50;;
8129;SDS011;4106;52.532;13.408;2022-08-11T00:19:20;1.75;;;1.50;;
8129;SDS011;4106;52.532;13.408;2022-08-11T00:21:47;2.00;;;1.77;;
8129;SDS011;4106;52.532;13.408;2022-08-11T00:24:15;4.30;;;1.52;;
8129;SDS011;4106;52.532;13.408;2022-08-11T00:26:46;3.83;;;1.80;;
8129;SDS011;4106;52.532;13.408;2022-08-11T00:29:10;1.17;;;1.17;;
8129;SDS011;4106;52.532;13.408;2022-08-11T00:31:37;2.78;;;1.60;;
8129;SDS011;4106;52.532;13.408;2022-08-11T00:34:07;1.62;;;1.52;;
8129;SDS011;4106;52.532;13.408;2022-08-11T00:36:39;2.97;;;1.70;;
8129;SDS011;4106;52.532;13.408;2022-08-11T00:39:05;3.03;;;1.40;;
8129;SDS011;4106;52.532;13.408;2022-08-11T00:44:39;3.05;;;1.40;;
8129;SDS011;4106;52.532;13.408;2022-08-11T00:47:14;2.20;;;1.70;;
8129;SDS011;4106;52.532;13.408;2022-08-11T00:50:02;2.33;;;1.60;;
8129;SDS011;4106;52.532;13.408;2022-08-11T00:52:57;2.08;;;1.40;;
8129;SDS011;4106;52.532;13.408;2022-08-11T01:01:20;1.60;;;1.50;;
8129;SDS011;4106;52.532;13.408;2022-08-11T01:03:58;1.62;;;1.52;;
8129;SDS011;4106;52.532;13.408;2022-08-11T01:07:07;1.55;;;1.42;;
8129;SDS011;4106;52.532;13.408;2022-08-11T01:09:39;1.48;;;1.40;;
8129;SDS011;4106;52.532;13.408;2022-08-11T01:12:19;1.40;;;1.30;;
8129;SDS011;4106;52.532;13.408;2022-08-11T01:20:17;1.33;;;1.23;;
8129;SDS011;4106;52.532;13.408;2022-08-11T01:22:49;1.50;;;1.40;;
8129;SDS011;4106;52.532;13.408;2022-08-11T01:25:28;1.37;;;1.27;;
8129;SDS011;4106;52.532;13.408;2022-08-11T01:32:02;1.20;;;1.20;;
8129;SDS011;4106;52.532;13.408;2022-08-11T01:36:54;2.17;;;1.55;;
8129;SDS011;4106;52.532;13.408;2022-08-11T01:45:05;1.30;;;1.30;;
8129;SDS011;4106;52.532;13.408;2022-08-11T01:47:43;1.50;;;1.40;;
8129;SDS011;4106;52.532;13.408;2022-08-11T01:50:56;1.48;;;1.37;;
8129;SDS011;4106;52.532;13.408;2022-08-11T01:53:28;1.37;;;1.35;;
8129;SDS011;4106;52.532;13.408;2022-08-11T01:56:09;1.20;;;1.20;;
8129;SDS011;4106;52.532;13.408;2022-08-11T01:58:35;1.20;;;1.20;;
8129;SDS011;4106;52.532;13.408;2022-08-11T02:03:52;1.30;;;1.20;;
8129;SDS011;4106;52.532;13.408;2022-08-11T02:06:20;1.35;;;1.17;;
8129;SDS011;4106;52.532;13.408;2022-08-11T02:11:39;1.60;;;1.45;;
8129;SDS011;4106;52.532;13.408;2022-08-11T02:14:15;1.80;;;1.70;;
8129;SDS011;4106;52.532;13.408;2022-08-11T02:16:47;1.50;;;1.40;;
8129;SDS011;4106;52.532;13.408;2022-08-11T02:19:25;2.25;;;1.40;;
8129;SDS011;4106;52.532;13.408;2022-08-11T02:22:21;1.37;;;1.27;;
8129;SDS011;4106;52.532;13.408;2022-08-11T02:24:59;2.92;;;1.40;;
8129;SDS011;4106;52.532;13.408;2022-08-11T02:27:40;1.70;;;1.60;;
8129;SDS011;4106;52.532;13.408;2022-08-11T02:30:09;1.90;;;1.30;;
8129;SDS011;4106;52.532;13.408;2022-08-11T02:32:44;1.50;;;1.40;;
8129;SDS011;4106;52.532;13.408;2022-08-11T02:35:35;1.60;;;1.50;;
8129;SDS011;4106;52.532;13.408;2022-08-11T02:39:10;1.30;;;1.30;;
8129;SDS011;4106;52.532;13.408;2022-08-11T02:40:49;1.70;;;1.40;;
8129;SDS011;4106;52.532;13.408;2022-08-11T02:48:49;1.15;;;1.15;;
8129;SDS011;4106;52.532;13.408;2022-08-11T02:51:26;1.05;;;1.05;;
8129;SDS011;4106;52.532;13.408;2022-08-11T02:54:06;1.55;;;1.45;;
8129;SDS011;4106;52.532;13.408;2022-08-11T02:56:40;3.15;;;1.50;;
8129;SDS011;4106;52.532;13.408;2022-08-11T02:59:07;1.40;;;1.30;;
8129;SDS011;4106;52.532;13.408;2022-08-11T03:01:47;2.22;;;1.70;;
8129;SDS011;4106;52.532;13.408;2022-08-11T03:04:09;1.55;;;1.40;;
8129;SDS011;4106;52.532;13.408;2022-08-11T03:06:38;1.58;;;1.48;;
8129;SDS011;4106;52.532;13.408;2022-08-11T03:09:08;1.30;;;1.20;;
8129;SDS011;4106;52.532;13.408;2022-08-11T03:11:48;1.80;;;1.70;;
8129;SDS011;4106;52.532;13.408;2022-08-11T03:20:18;2.60;;;1.42;;
8129;SDS011;4106;52.532;13.408;2022-08-11T03:22:48;1.20;;;1.20;;
8129;SDS011;4106;52.532;13.408;2022-08-11T03:25:19;1.30;;;1.20;;
8129;SDS011;4106;52.532;13.408;2022-08-11T03:28:08;1.70;;;1.58;;
8129;SDS011;4106;52.532;13.408;2022-08-11T03:31:36;2.28;;;1.62;;
8129;SDS011;4106;52.532;13.408;2022-08-11T03:33:22;1.37;;;1.33;;
8129;SDS011;4106;52.532;13.408;2022-08-11T03:36:04;2.12;;;1.60;;
8129;SDS011;4106;52.532;13.408;2022-08-11T03:38:33;1.42;;;1.33;;
8129;SDS011;4106;52.532;13.408;2022-08-11T03:41:05;2.22;;;1.33;;
8129;SDS011;4106;52.532;13.408;2022-08-11T03:43:46;2.05;;;1.80;;
8129;SDS011;4106;52.532;13.408;2022-08-11T03:46:25;1.85;;;1.73;;
8129;SDS011;4106;52.532;13.408;2022-08-11T03:51:54;2.17;;;1.67;;
8129;SDS011;4106;52.532;13.408;2022-08-11T03:54:27;1.40;;;1.40;;
8129;SDS011;4106;52.532;13.408;2022-08-11T03:59:56;1.40;;;1.30;;
8129;SDS011;4106;52.532;13.408;2022-08-11T04:05:32;1.55;;;1.45;;
8129;SDS011;4106;52.532;13.408;2022-08-11T04:10:56;1.98;;;1.73;;
8129;SDS011;4106;52.532;13.408;2022-08-11T04:22:04;1.52;;;1.42;;
8129;SDS011;4106;52.532;13.408;2022-08-11T04:24:57;1.60;;;1.42;;
8129;SDS011;4106;52.532;13.408;2022-08-11T04:27:46;1.60;;;1.50;;
8129;SDS011;4106;52.532;13.408;2022-08-11T04:30:11;1.55;;;1.45;;
8129;SDS011;4106;52.532;13.408;2022-08-11T04:32:48;2.00;;;1.65;;
8129;SDS011;4106;52.532;13.408;2022-08-11T04:35:33;1.90;;;1.80;;
8129;SDS011;4106;52.532;13.408;2022-08-11T04:39:26;1.73;;;1.62;;
8129;SDS011;4106;52.532;13.408;2022-08-11T04:41:12;1.73;;;1.62;;
8129;SDS011;4106;52.532;13.408;2022-08-11T04:46:32;1.92;;;1.83;;
8129;SDS011;4106;52.532;13.408;2022-08-11T04:52:12;1.60;;;1.50;;
8129;SDS011;4106;52.532;13.408;2022-08-11T04:57:46;3.97;;;1.80;;
8129;SDS011;4106;52.532;13.408;2022-08-11T05:00:29;1.83;;;1.73;;
8129;SDS011;4106;52.532;13.408;2022-08-11T05:03:17;2.10;;;1.87;;
8129;SDS011;4106;52.532;13.408;2022-08-11T05:05:58;5.40;;;2.20;;
8129;SDS011;4106;52.532;13.408;2022-08-11T05:14:06;1.95;;;1.85;;
8129;SDS011;4106;52.532;13.408;2022-08-11T05:16:50;1.98;;;1.87;;
8129;SDS011;4106;52.532;13.408;2022-08-11T05:19:23;2.15;;;1.95;;
8129;SDS011;4106;52.532;13.408;2022-08-11T05:21:56;2.05;;;1.73;;
8129;SDS011;4106;52.532;13.408;2022-08-11T05:24:30;3.60;;;2.15;;
8129;SDS011;4106;52.532;13.408;2022-08-11T05:27:30;2.67;;;2.03;;
8129;SDS011;4106;52.532;13.408;2022-08-11T05:30:03;3.12;;;2.25;;
8129;SDS011;4106;52.532;13.408;2022-08-11T05:32:38;3.40;;;2.40;;
8129;SDS011;4106;52.532;13.408;2022-08-11T05:35:11;2.78;;;2.20;;
8129;SDS011;4106;52.532;13.408;2022-08-11T05:37:41;2.35;;;2.15;;
8129;SDS011;4106;52.532;13.408;2022-08-11T05:40:10;2.05;;;1.95;;
8129;SDS011;4106;52.532;13.408;2022-08-11T05:42:48;2.20;;;2.00;;
8129;SDS011;4106;52.532;13.408;2022-08-11T05:45:16;2.60;;;2.03;;
8129;SDS011;4106;52.532;13.408;2022-08-11T05:47:49;2.40;;;2.20;;
8129;SDS011;4106;52.532;13.408;2022-08-11T05:50:21;2.35;;;2.15;;
8129;SDS011;4106;52.532;13.408;2022-08-11T05:52:54;2.22;;;2.03;;
8129;SDS011;4106;52.532;13.408;2022-08-11T05:55:27;2.22;;;2.03;;
8129;SDS011;4106;52.532;13.408;2022-08-11T05:58:02;2.40;;;2.17;;
8129;SDS011;4106;52.532;13.408;2022-08-11T06:00:29;2.00;;;1.90;;
8129;SDS011;4106;52.532;13.408;2022-08-11T06:02:57;2.05;;;1.95;;
8129;SDS011;4106;52.532;13.408;2022-08-11T06:05:24;3.55;;;2.12;;
8129;SDS011;4106;52.532;13.408;2022-08-11T06:07:52;2.00;;;1.90;;
8129;SDS011;4106;52.532;13.408;2022-08-11T06:10:24;2.78;;;2.58;;
8129;SDS011;4106;52.532;13.408;2022-08-11T06:12:53;2.60;;;2.40;;
8129;SDS011;4106;52.532;13.408;2022-08-11T06:15:21;2.08;;;1.98;;
8129;SDS011;4106;52.532;13.408;2022-08-11T06:17:49;2.62;;;2.35;;
8129;SDS011;4106;52.532;13.408;2022-08-11T06:20:16;3.17;;;2.28;;
8129;SDS011;4106;52.532;13.408;2022-08-11T06:22:45;2.35;;;2.20;;
8129;SDS011;4106;52.532;13.408;2022-08-11T06:25:11;2.08;;;1.90;;
8129;SDS011;4106;52.532;13.408;2022-08-11T06:27:39;2.35;;;2.22;;
8129;SDS011;4106;52.532;13.408;2022-08-11T06:30:06;2.75;;;2.50;;
8129;SDS011;4106;52.532;13.408;2022-08-11T06:32:34;2.67;;;2.20;;
8129;SDS011;4106;52.532;13.408;2022-08-11T06:35:18;2.58;;;2.37;;
8129;SDS011;4106;52.532;13.408;2022-08-11T06:39:05;2.65;;;2.45;;
8129;SDS011;4106;52.532;13.408;2022-08-11T06:40:45;2.75;;;2.35;;
8129;SDS011;4106;52.532;13.408;2022-08-11T06:43:18;2.22;;;2.12;;
8129;SDS011;4106;52.532;13.408;2022-08-11T06:45:50;2.53;;;2.33;;
8129;SDS011;4106;52.532;13.408;2022-08-11T06:48:32;2.70;;;2.15;;
8129;SDS011;4106;52.532;13.408;2022-08-11T06:51:01;2.45;;;2.25;;
8129;SDS011;4106;52.532;13.408;2022-08-11T06:53:37;2.30;;;2.17;;
8129;SDS011;4106;52.532;13.408;2022-08-11T06:56:03;4.45;;;2.50;;
8129;SDS011;4106;52.532;13.408;2022-08-11T06:58:37;2.58;;;2.37;;
8129;SDS011;4106;52.532;13.408;2022-08-11T07:01:10;2.50;;;2.30;;
8129;SDS011;4106;52.532;13.408;2022-08-11T07:03:38;2.67;;;2.00;;
8129;SDS011;4106;52.532;13.408;2022-08-11T07:06:06;3.28;;;2.10;;
8129;SDS011;4106;52.532;13.408;2022-08-11T07:14:32;2.70;;;2.50;;
8129;SDS011;4106;52.532;13.408;2022-08-11T07:17:07;2.80;;;2.60;;
8129;SDS011;4106;52.532;13.408;2022-08-11T07:19:33;3.85;;;2.25;;
8129;SDS011;4106;52.532;13.408;2022-08-11T07:22:06;4.85;;;2.90;;
8129;SDS011;4106;52.532;13.408;2022-08-11T07:24:41;3.22;;;2.17;;
8129;SDS011;4106;52.532;13.408;2022-08-11T07:27:14;2.50;;;2.30;;
8129;SDS011;4106;52.532;13.408;2022-08-11T07:29:46;3.65;;;2.35;;
8129;SDS011;4106;52.532;13.408;2022-08-11T07:32:14;2.95;;;2.45;;
8129;SDS011;4106;52.532;13.408;2022-08-11T07:34:45;2.50;;;2.30;;
8129;SDS011;4106;52.532;13.408;2022-08-11T07:37:13;6.10;;;2.87;;
8129;SDS011;4106;52.532;13.408;2022-08-11T07:39:40;5.72;;;2.47;;
8129;SDS011;4106;52.532;13.408;2022-08-11T07:42:09;3.25;;;2.20;;
8129;SDS011;4106;52.532;13.408;2022-08-11T07:44:36;2.72;;;2.50;;
8129;SDS011;4106;52.532;13.408;2022-08-11T07:47:03;5.12;;;2.30;;
8129;SDS011;4106;52.532;13.408;2022-08-11T07:49:37;3.53;;;2.60;;
8129;SDS011;4106;52.532;13.408;2022-08-11T07:52:10;3.47;;;2.20;;
8129;SDS011;4106;52.532;13.408;2022-08-11T07:54:42;6.62;;;2.47;;
8129;SDS011;4106;52.532;13.408;2022-08-11T07:57:10;5.68;;;2.83;;
8129;SDS011;4106;52.532;13.408;2022-08-11T07:59:42;16.50;;;3.85;;
8129;SDS011;4106;52.532;13.408;2022-08-11T08:02:15;61.13;;;11.82;;
8129;SDS011;4106;52.532;13.408;2022-08-11T08:04:48;124.07;;;25.55;;
8129;SDS011;4106;52.532;13.408;2022-08-11T08:07:21;135.32;;;27.00;;
8129;SDS011;4106;52.532;13.408;2022-08-11T08:09:54;38.58;;;8.93;;
8129;SDS011;4106;52.532;13.408;2022-08-11T08:12:27;61.00;;;13.65;;
8129;SDS011;4106;52.532;13.408;2022-08-11T08:15:00;65.65;;;16.42;;
8129;SDS011;4106;52.532;13.408;2022-08-11T08:17:33;11.57;;;4.28;;
8129;SDS011;4106;52.532;13.408;2022-08-11T08:20:07;53.10;;;15.10;;
8129;SDS011;4106;52.532;13.408;2022-08-11T08:22:35;19.23;;;4.12;;
8129;SDS011;4106;52.532;13.408;2022-08-11T08:25:02;10.25;;;3.60;;
8129;SDS011;4106;52.532;13.408;2022-08-11T08:27:29;12.65;;;4.32;;
8129;SDS011;4106;52.532;13.408;2022-08-11T08:29:57;10.77;;;4.20;;
8129;SDS011;4106;52.532;13.408;2022-08-11T08:32:43;12.02;;;3.53;;
8129;SDS011;4106;52.532;13.408;2022-08-11T08:35:10;4.03;;;2.65;;
8129;SDS011;4106;52.532;13.408;2022-08-11T08:37:37;3.42;;;2.40;;
8129;SDS011;4106;52.532;13.408;2022-08-11T08:40:06;4.87;;;3.30;;
8129;SDS011;4106;52.532;13.408;2022-08-11T08:42:46;5.10;;;2.67;;
8129;SDS011;4106;52.532;13.408;2022-08-11T08:45:05;4.15;;;2.65;;
8129;SDS011;4106;52.532;13.408;2022-08-11T08:47:35;3.62;;;2.62;;
8129;SDS011;4106;52.532;13.408;2022-08-11T08:50:03;4.53;;;2.50;;
8129;SDS011;4106;52.532;13.408;2022-08-11T08:52:30;4.93;;;3.10;;
8129;SDS011;4106;52.532;13.408;2022-08-11T08:54:57;6.57;;;3.40;;
8129;SDS011;4106;52.532;13.408;2022-08-11T08:57:25;4.07;;;2.50;;
8129;SDS011;4106;52.532;13.408;2022-08-11T08:59:51;3.33;;;2.20;;
8129;SDS011;4106;52.532;13.408;2022-08-11T09:02:19;4.35;;;2.80;;
8129;SDS011;4106;52.532;13.408;2022-08-11T09:04:46;7.37;;;3.30;;
8129;SDS011;4106;52.532;13.408;2022-08-11T09:07:15;2.67;;;2.00;;
8129;SDS011;4106;52.532;13.408;2022-08-11T09:09:43;5.57;;;2.45;;
8129;SDS011;4106;52.532;13.408;2022-08-11T09:12:10;2.25;;;2.08;;
8129;SDS011;4106;52.532;13.408;2022-08-11T09:14:37;2.47;;;1.92;;
8129;SDS011;4106;52.532;13.408;2022-08-11T09:17:11;5.00;;;2.70;;
8129;SDS011;4106;52.532;13.408;2022-08-11T09:19:38;5.40;;;2.67;;
8129;SDS011;4106;52.532;13.408;2022-08-11T09:22:06;2.42;;;2.00;;
8129;SDS011;4106;52.532;13.408;2022-08-11T09:24:39;2.40;;;1.77;;
8129;SDS011;4106;52.532;13.408;2022-08-11T09:27:12;2.55;;;2.20;;
8129;SDS011;4106;52.532;13.408;2022-08-11T09:29:39;4.45;;;3.00;;
8129;SDS011;4106;52.532;13.408;2022-08-11T09:32:06;4.30;;;2.62;;
8129;SDS011;4106;52.532;13.408;2022-08-11T09:34:34;2.10;;;1.90;;
8129;SDS011;4106;52.532;13.408;2022-08-11T09:37:01;2.75;;;2.12;;
8129;SDS011;4106;52.532;13.408;2022-08-11T09:39:35;2.35;;;2.10;;
8129;SDS011;4106;52.532;13.408;2022-08-11T09:42:08;1.90;;;1.80;;
8129;SDS011;4106;52.532;13.408;2022-08-11T09:44:35;6.97;;;3.15;;
8129;SDS011;4106;52.532;13.408;2022-08-11T09:47:08;5.57;;;2.97;;
8129;SDS011;4106;52.532;13.408;2022-08-11T09:49:35;2.72;;;1.85;;
8129;SDS011;4106;52.532;13.408;2022-08-11T09:52:03;2.53;;;1.77;;
8129;SDS011;4106;52.532;13.408;2022-08-11T09:54:31;1.92;;;1.83;;
8129;SDS011;4106;52.532;13.408;2022-08-11T09:56:59;1.90;;;1.80;;
8129;SDS011;4106;52.532;13.408;2022-08-11T09:59:32;2.03;;;1.83;;
8129;SDS011;4106;52.532;13.408;2022-08-11T10:02:00;4.65;;;2.30;;
8129;SDS011;4106;52.532;13.408;2022-08-11T10:04:30;3.05;;;2.20;;
8129;SDS011;4106;52.532;13.408;2022-08-11T10:06:57;6.80;;;3.60;;
8129;SDS011;4106;52.532;13.408;2022-08-11T10:09:33;2.72;;;2.25;;
8129;SDS011;4106;52.532;13.408;2022-08-11T10:12:05;5.18;;;3.70;;
8129;SDS011;4106;52.532;13.408;2022-08-11T10:14:32;6.07;;;3.78;;
8129;SDS011;4106;52.532;13.408;2022-08-11T10:17:06;5.30;;;3.33;;
8129;SDS011;4106;52.532;13.408;2022-08-11T10:19:33;6.30;;;3.15;;
8129;SDS011;4106;52.532;13.408;2022-08-11T10:22:01;3.17;;;2.87;;
8129;SDS011;4106;52.532;13.408;2022-08-11T10:24:33;2.10;;;2.00;;
8129;SDS011;4106;52.532;13.408;2022-08-11T10:27:06;3.70;;;1.87;;
8129;SDS011;4106;52.532;13.408;2022-08-11T10:29:36;3.22;;;2.47;;
8129;SDS011;4106;52.532;13.408;2022-08-11T10:32:09;2.33;;;1.70;;
8129;SDS011;4106;52.532;13.408;2022-08-11T10:34:43;5.28;;;2.45;;
8129;SDS011;4106;52.532;13.408;2022-08-11T10:37:11;1.90;;;1.80;;
8129;SDS011;4106;52.532;13.408;2022-08-11T10:39:38;1.75;;;1.65;;
8129;SDS011;4106;52.532;13.408;2022-08-11T10:42:05;2.05;;;1.95;;
8129;SDS011;4106;52.532;13.408;2022-08-11T10:44:39;1.77;;;1.67;;
8129;SDS011;4106;52.532;13.408;2022-08-11T10:47:10;2.35;;;1.90;;
8129;SDS011;4106;52.532;13.408;2022-08-11T10:49:42;2.60;;;1.80;;
8129;SDS011;4106;52.532;13.408;2022-08-11T10:52:09;1.98;;;1.87;;
8129;SDS011;4106;52.532;13.408;2022-08-11T10:54:42;3.42;;;2.85;;
8129;SDS011;4106;52.532;13.408;2022-08-11T10:57:15;2.05;;;1.90;;
8129;SDS011;4106;52.532;13.408;2022-08-11T10:59:48;2.87;;;2.40;;
8129;SDS011;4106;52.532;13.408;2022-08-11T11:02:16;1.70;;;1.60;;
8129;SDS011;4106;52.532;13.408;2022-08-11T11:04:51;2.08;;;1.95;;
8129;SDS011;4106;52.532;13.408;2022-08-11T11:07:20;1.73;;;1.62;;
8129;SDS011;4106;52.532;13.408;2022-08-11T11:09:48;3.25;;;2.20;;
8129;SDS011;4106;52.532;13.408;2022-08-11T11:12:20;3.17;;;2.85;;
8129;SDS011;4106;52.532;13.408;2022-08-11T11:14:51;3.87;;;3.00;;
8129;SDS011;4106;52.532;13.408;2022-08-11T11:17:26;1.92;;;1.83;;
8129;SDS011;4106;52.532;13.408;2022-08-11T11:19:58;2.20;;;2.00;;
8129;SDS011;4106;52.532;13.408;2022-08-11T11:22:27;2.75;;;1.77;;
8129;SDS011;4106;52.532;13.408;2022-08-11T11:25:03;1.20;;;1.20;;
8129;SDS011;4106;52.532;13.408;2022-08-11T11:27:33;1.60;;;1.50;;
8129;SDS011;4106;52.532;13.408;2022-08-11T11:30:01;1.80;;;1.70;;
8129;SDS011;4106;52.532;13.408;2022-08-11T11:32:31;1.50;;;1.40;;
8129;SDS011;4106;52.532;13.408;2022-08-11T11:37:50;2.22;;;2.12;;
8129;SDS011;4106;52.532;13.408;2022-08-11T11:40:19;2.08;;;1.60;;
8129;SDS011;4106;52.532;13.408;2022-08-11T11:42:48;1.58;;;1.48;;
8129;SDS011;4106;52.532;13.408;2022-08-11T11:45:17;1.85;;;1.75;;
8129;SDS011;4106;52.532;13.408;2022-08-11T11:47:45;1.60;;;1.50;;
8129;SDS011;4106;52.532;13.408;2022-08-11T11:50:11;2.00;;;1.90;;
8129;SDS011;4106;52.532;13.408;2022-08-11T11:52:38;2.70;;;2.50;;
8129;SDS011;4106;52.532;13.408;2022-08-11T11:55:06;8.80;;;2.12;;
8129;SDS011;4106;52.532;13.408;2022-08-11T11:57:34;2.87;;;1.80;;
8129;SDS011;4106;52.532;13.408;2022-08-11T12:00:08;2.33;;;2.12;;
8129;SDS011;4106;52.532;13.408;2022-08-11T12:02:42;4.18;;;2.30;;
8129;SDS011;4106;52.532;13.408;2022-08-11T12:05:09;2.40;;;2.10;;
8129;SDS011;4106;52.532;13.408;2022-08-11T12:07:37;3.33;;;2.45;;
8129;SDS011;4106;52.532;13.408;2022-08-11T12:10:09;4.50;;;2.42;;
8129;SDS011;4106;52.532;13.408;2022-08-11T12:12:37;1.73;;;1.62;;
8129;SDS011;4106;52.532;13.408;2022-08-11T12:15:10;2.45;;;2.25;;
8129;SDS011;4106;52.532;13.408;2022-08-11T12:17:38;2.83;;;2.20;;
8129;SDS011;4106;52.532;13.408;2022-08-11T12:20:05;3.62;;;2.50;;
8129;SDS011;4106;52.532;13.408;2022-08-11T12:22:34;2.65;;;2.45;;
8129;SDS011;4106;52.532;13.408;2022-08-11T12:25:08;2.25;;;2.05;;
8129;SDS011;4106;52.532;13.408;2022-08-11T12:27:42;2.90;;;2.30;;
8129;SDS011;4106;52.532;13.408;2022-08-11T12:30:10;4.60;;;2.40;;
8129;SDS011;4106;52.532;13.408;2022-08-11T12:32:39;2.53;;;2.05;;
8129;SDS011;4106;52.532;13.408;2022-08-11T12:35:06;4.43;;;2.20;;
8129;SDS011;4106;52.532;13.408;2022-08-11T12:37:39;2.40;;;2.20;;
8129;SDS011;4106;52.532;13.408;2022-08-11T12:40:08;2.17;;;1.98;;
8129;SDS011;4106;52.532;13.408;2022-08-11T12:42:40;3.10;;;1.80;;
8129;SDS011;4106;52.532;13.408;2022-08-11T12:45:13;3.47;;;2.17;;
8129;SDS011;4106;52.532;13.408;2022-08-11T12:47:49;3.83;;;1.85;;
8129;SDS011;4106;52.532;13.408;2022-08-11T12:50:19;2.80;;;1.90;;
8129;SDS011;4106;52.532;13.408;2022-08-11T12:52:51;2.20;;;2.10;;
8129;SDS011;4106;52.532;13.408;2022-08-11T12:55:19;3.12;;;2.55;;
8129;SDS011;4106;52.532;13.408;2022-08-11T12:57:48;3.40;;;2.30;;
8129;SDS011;4106;52.532;13.408;2022-08-11T13:00:20;2.00;;;1.90;;
8129;SDS011;4106;52.532;13.408;2022-08-11T13:02:56;1.80;;;1.70;;
8129;SDS011;4106;52.532;13.408;2022-08-11T13:05:29;2.45;;;2.10;;
8129;SDS011;4106;52.532;13.408;2022-08-11T13:07:56;2.42;;;2.20;;
8129;SDS011;4106;52.532;13.408;2022-08-11T13:10:23;3.97;;;2.20;;
8129;SDS011;4106;52.532;13.408;2022-08-11T13:12:56;1.77;;;1.67;;
8129;SDS011;4106;52.532;13.408;2022-08-11T13:15:24;1.62;;;1.52;;
8129;SDS011;4106;52.532;13.408;2022-08-11T13:17:51;2.35;;;2.15;;
8129;SDS011;4106;52.532;13.408;2022-08-11T13:20:19;2.65;;;2.17;;
8129;SDS011;4106;52.532;13.408;2022-08-11T13:22:47;2.20;;;2.03;;
8129;SDS011;4106;52.532;13.408;2022-08-11T13:25:15;1.90;;;1.80;;
8129;SDS011;4106;52.532;13.408;2022-08-11T13:27:42;3.53;;;1.87;;
8129;SDS011;4106;52.532;13.408;2022-08-11T13:30:08;2.85;;;2.00;;
8129;SDS011;4106;52.532;13.408;2022-08-11T13:32:43;1.98;;;1.87;;
8129;SDS011;4106;52.532;13.408;2022-08-11T13:35:11;2.22;;;2.00;;
8129;SDS011;4106;52.532;13.408;2022-08-11T13:37:39;2.70;;;2.10;;
8129;SDS011;4106;52.532;13.408;2022-08-11T13:40:06;1.73;;;1.62;;
8129;SDS011;4106;52.532;13.408;2022-08-11T13:42:35;1.95;;;1.85;;
8129;SDS011;4106;52.532;13.408;2022-08-11T13:45:02;2.28;;;1.77;;
8129;SDS011;4106;52.532;13.408;2022-08-11T13:47:30;7.03;;;2.25;;
8129;SDS011;4106;52.532;13.408;2022-08-11T13:49:58;1.30;;;1.30;;
8129;SDS011;4106;52.532;13.408;2022-08-11T13:52:26;1.95;;;1.67;;
8129;SDS011;4106;52.532;13.408;2022-08-11T13:54:54;2.10;;;1.90;;
8129;SDS011;4106;52.532;13.408;2022-08-11T13:57:21;2.55;;;1.67;;
8129;SDS011;4106;52.532;13.408;2022-08-11T13:59:51;2.17;;;1.98;;
8129;SDS011;4106;52.532;13.408;2022-08-11T14:02:20;2.67;;;1.67;;
8129;SDS011;4106;52.532;13.408;2022-08-11T14:04:51;2.40;;;1.80;;
8129;SDS011;4106;52.532;13.408;2022-08-11T14:07:16;1.77;;;1.33;;
8129;SDS011;4106;52.532;13.408;2022-08-11T14:09:43;1.50;;;1.40;;
8129;SDS011;4106;52.532;13.408;2022-08-11T14:12:13;1.90;;;1.80;;
8129;SDS011;4106;52.532;13.408;2022-08-11T14:14:47;1.92;;;1.77;;
8129;SDS011;4106;52.532;13.408;2022-08-11T14:17:13;3.60;;;1.73;;
8129;SDS011;4106;52.532;13.408;2022-08-11T14:19:40;1.87;;;1.73;;
8129;SDS011;4106;52.532;13.408;2022-08-11T14:22:08;3.72;;;1.90;;
8129;SDS011;4106;52.532;13.408;2022-08-11T14:24:39;2.12;;;1.67;;
8129;SDS011;4106;52.532;13.408;2022-08-11T14:27:06;2.97;;;2.20;;
8129;SDS011;4106;52.532;13.408;2022-08-11T14:29:33;2.60;;;1.58;;
8129;SDS011;4106;52.532;13.408;2022-08-11T14:32:02;1.40;;;1.30;;
8129;SDS011;4106;52.532;13.408;2022-08-11T14:34:28;1.55;;;1.45;;
8129;SDS011;4106;52.532;13.408;2022-08-11T14:36:56;1.50;;;1.40;;
8129;SDS011;4106;52.532;13.408;2022-08-11T14:39:24;1.80;;;1.37;;
8129;SDS011;4106;52.532;13.408;2022-08-11T14:41:55;1.58;;;1.48;;
8129;SDS011;4106;52.532;13.408;2022-08-11T14:44:27;1.83;;;1.67;;
8129;SDS011;4106;52.532;13.408;2022-08-11T14:47:00;1.73;;;1.62;;
8129;SDS011;4106;52.532;13.408;2022-08-11T14:49:32;1.60;;;1.48;;
8129;SDS011;4106;52.532;13.408;2022-08-11T14:51:59;1.90;;;1.80;;
8129;SDS011;4106;52.532;13.408;2022-08-11T14:54:27;2.50;;;1.30;;
8129;SDS011;4106;52.532;13.408;2022-08-11T14:56:59;3.00;;;1.52;;
8129;SDS011;4106;52.532;13.408;2022-08-11T14:59:26;2.87;;;1.37;;
8129;SDS011;4106;52.532;13.408;2022-08-11T15:01:54;4.40;;;1.50;;
8129;SDS011;4106;52.532;13.408;2022-08-11T15:04:27;2.75;;;1.77;;
8129;SDS011;4106;52.532;13.408;2022-08-11T15:06:54;1.50;;;1.40;;
8129;SDS011;4106;52.532;13.408;2022-08-11T15:09:22;1.40;;;1.30;;
8129;SDS011;4106;52.532;13.408;2022-08-11T15:11:50;1.37;;;1.17;;
8129;SDS011;4106;52.532;13.408;2022-08-11T15:14:23;1.73;;;1.45;;
8129;SDS011;4106;52.532;13.408;2022-08-11T15:16:56;2.28;;;1.50;;
8129;SDS011;4106;52.532;13.408;2022-08-11T15:19:29;3.20;;;1.30;;
8129;SDS011;4106;52.532;13.408;2022-08-11T15:21:57;1.85;;;1.50;;
8129;SDS011;4106;52.532;13.408;2022-08-11T15:24:30;1.40;;;1.30;;
8129;SDS011;4106;52.532;13.408;2022-08-11T15:26:57;2.15;;;1.27;;
8129;SDS011;4106;52.532;13.408;2022-08-11T15:29:31;3.72;;;1.52;;
8129;SDS011;4106;52.532;13.408;2022-08-11T15:32:04;1.60;;;1.50;;
8129;SDS011;4106;52.532;13.408;2022-08-11T15:34:37;2.17;;;1.35;;
8129;SDS011;4106;52.532;13.408;2022-08-11T15:37:11;2.05;;;1.25;;
8129;SDS011;4106;52.532;13.408;2022-08-11T15:39:46;2.25;;;1.52;;
8129;SDS011;4106;52.532;13.408;2022-08-11T15:42:23;1.60;;;1.50;;
8129;SDS011;4106;52.532;13.408;2022-08-11T15:44:58;2.35;;;1.20;;
8129;SDS011;4106;52.532;13.408;2022-08-11T15:47:32;1.92;;;1.23;;
8129;SDS011;4106;52.532;13.408;2022-08-11T15:49:56;2.22;;;1.50;;
8129;SDS011;4106;52.532;13.408;2022-08-11T15:52:24;2.67;;;1.50;;
8129;SDS011;4106;52.532;13.408;2022-08-11T15:54:51;1.80;;;1.00;;
8129;SDS011;4106;52.532;13.408;2022-08-11T15:57:18;1.08;;;1.05;;
8129;SDS011;4106;52.532;13.408;2022-08-11T15:59:51;2.35;;;1.35;;
8129;SDS011;4106;52.532;13.408;2022-08-11T16:02:24;1.50;;;1.25;;
8129;SDS011;4106;52.532;13.408;2022-08-11T16:05:09;1.42;;;1.15;;
8129;SDS011;4106;52.532;13.408;2022-08-11T16:07:36;1.12;;;1.10;;
8129;SDS011;4106;52.532;13.408;2022-08-11T16:10:05;0.98;;;0.98;;
8129;SDS011;4106;52.532;13.408;2022-08-11T16:12:39;1.70;;;1.25;;
8129;SDS011;4106;52.532;13.408;2022-08-11T16:15:10;1.25;;;1.10;;
8129;SDS011;4106;52.532;13.408;2022-08-11T16:17:49;1.75;;;1.40;;
8129;SDS011;4106;52.532;13.408;2022-08-11T16:20:26;1.85;;;1.48;;
8129;SDS011;4106;52.532;13.408;2022-08-11T16:23:00;1.27;;;1.27;;
8129;SDS011;4106;52.532;13.408;2022-08-11T16:25:29;1.85;;;1.52;;
8129;SDS011;4106;52.532;13.408;2022-08-11T16:28:09;1.50;;;1.40;;
8129;SDS011;4106;52.532;13.408;2022-08-11T16:30:47;1.52;;;1.42;;
8129;SDS011;4106;52.532;13.408;2022-08-11T16:33:22;1.25;;;1.17;;
8129;SDS011;4106;52.532;13.408;2022-08-11T16:36:00;1.20;;;1.20;;
8129;SDS011;4106;52.532;13.408;2022-08-11T16:38:57;4.87;;;1.52;;
8129;SDS011;4106;52.532;13.408;2022-08-11T16:41:34;3.08;;;1.60;;
8129;SDS011;4106;52.532;13.408;2022-08-11T16:44:12;1.65;;;1.35;;
8129;SDS011;4106;52.532;13.408;2022-08-11T16:46:48;1.80;;;1.70;;
8129;SDS011;4106;52.532;13.408;2022-08-11T16:49:30;2.22;;;1.75;;
8129;SDS011;4106;52.532;13.408;2022-08-11T16:54:42;2.37;;;1.33;;
8129;SDS011;4106;52.532;13.408;2022-08-11T16:57:20;1.42;;;1.30;;
8129;SDS011;4106;52.532;13.408;2022-08-11T17:00:03;1.33;;;1.33;;